Lunamar — 5BNV2 — position and weather

sailwx.info

Track history (hours):
 
Tides and Currents Weather Stations Pressure Air Temp Water Temp Dewpoint Dewpoint Depression Visibility Wind Speed Wind Dir Waves Ship Positions

Lunamar

Last reported at 2015-Mar-22 17:20 UTC. Time now 2015-Mar-27 20:54 UTC.
Position N 57°37' E 017°03'.

Length 90 m; draft 4.5 m.

Type: Cargo ship. MMSI: 212762000.

Date/timePositionNaut miles runAvg speedWind from/ knotsBaromVisibWave heightAir tempDewpointWater temp
2015-Mar-22 17:20N 57°37' E 017°03'6 7.2
2015-Mar-22 16:33N 57°32' E 016°59'7 7.0
2015-Mar-22 15:33N 57°25' E 016°53'7 7.2
2015-Mar-22 14:33N 57°19' E 016°48'7 7.3
2015-Mar-22 13:33N 57°16' E 016°35'4 3.5
2015-Mar-22 12:29N 57°16' E 016°28'0 0.0
2015-Mar-22 11:32N 57°16' E 016°28'0 0.0
2015-Mar-22 10:32N 57°16' E 016°28'0 0.0
2015-Mar-22 09:33N 57°16' E 016°28'0 0.0
2015-Mar-22 08:33N 57°16' E 016°28'0 0.0
2015-Mar-22 07:33N 57°16' E 016°28'0 0.0
2015-Mar-22 06:33N 57°16' E 016°28'0 0.0
2015-Mar-22 05:33N 57°16' E 016°28'0 0.0
2015-Mar-22 04:33N 57°16' E 016°28'0 0.0
2015-Mar-22 03:33N 57°16' E 016°28'0 0.0
2015-Mar-22 02:33N 57°16' E 016°28'0 0.0
2015-Mar-22 01:33N 57°16' E 016°28'0 0.0
2015-Mar-22 00:33N 57°16' E 016°28'0 0.0
2015-Mar-21 23:33N 57°16' E 016°28'0 0.0
2015-Mar-21 22:33N 57°16' E 016°28'0 0.0
2015-Mar-21 21:33N 57°16' E 016°28'0 0.0
2015-Mar-21 20:33N 57°16' E 016°28'0 0.0
2015-Mar-21 19:33N 57°16' E 016°28'0 0.0
2015-Mar-21 18:33N 57°16' E 016°28'0 0.0
2015-Mar-21 17:33N 57°16' E 016°28'0 0.0
2015-Mar-21 16:33N 57°16' E 016°28'0 0.0
2015-Mar-21 15:33N 57°16' E 016°28'0 0.0
2015-Mar-21 14:33N 57°16' E 016°28'0 0.0
2015-Mar-21 13:33N 57°16' E 016°28'0 0.0
2015-Mar-21 12:33N 57°16' E 016°28'3 3.1
2015-Mar-21 11:33N 57°17' E 016°33'7 7.4
2015-Mar-21 10:33N 57°17' E 016°47'8 7.9
2015-Mar-21 09:33N 57°23' E 016°57'9 8.7
2015-Mar-21 08:31N 57°26' E 017°13'8 6.2
2015-Mar-21 07:16N 57°18' E 017°16'119 2.8
2015-Mar-19 13:13N 55°59' E 014°34'710.1
2015-Mar-19 12:33N 55°52' E 014°38'1111.0
2015-Mar-19 11:33N 55°41' E 014°38'1110.8
2015-Mar-19 10:33N 55°31' E 014°38'1010.2
2015-Mar-19 09:33N 55°21' E 014°33'1110.7
2015-Mar-19 08:33N 55°13' E 014°21'1110.8
2015-Mar-19 07:33N 55°04' E 014°10'1010.3
2015-Mar-19 06:33N 54°59' E 013°54'1110.6
2015-Mar-19 05:33N 54°55' E 013°37'1110.6
2015-Mar-19 04:33N 54°52' E 013°19'1110.6
2015-Mar-19 03:33N 54°49' E 013°02'1010.4
2015-Mar-19 02:33N 54°45' E 012°45'1010.4
2015-Mar-19 01:33N 54°39' E 012°30'10 9.9
2015-Mar-19 00:33N 54°33' E 012°17'10 9.5
2015-Mar-18 23:33N 54°25' E 012°09'1010.2
2015-Mar-18 22:33N 54°25' E 011°51'1010.1
2015-Mar-18 21:33N 54°28' E 011°34'9 9.5
2015-Mar-18 20:33N 54°32' E 011°20'8 8.4
2015-Mar-18 19:33N 54°35' E 011°06'9 9.3
2015-Mar-18 18:33N 54°35' E 010°51'1110.1
2015-Mar-18 17:28N 54°33' E 010°32'910.0
2015-Mar-18 16:33N 54°29' E 010°18'9 8.8
2015-Mar-18 15:33N 54°21' E 010°10'15 3.8
2015-Mar-18 11:33N 54°20' E 009°44'8 7.2
2015-Mar-18 10:31N 54°14' E 009°36'16 7.9
2015-Mar-18 08:33N 54°02' E 009°18'8 8.5
2015-Mar-18 07:33N 53°55' E 009°11'3 3.1
2015-Mar-18 06:33N 53°53' E 009°07'5 5.4
2015-Mar-18 05:33N 53°51' E 008°59'8 7.6
2015-Mar-18 04:33N 53°51' E 008°46'7 7.2
2015-Mar-18 03:33N 53°56' E 008°39'8 7.6
2015-Mar-18 02:33N 53°59' E 008°26'9 8.6
2015-Mar-18 01:33N 53°60' E 008°12'9 9.4
2015-Mar-18 00:33N 53°58' E 007°56'10 9.4
2015-Mar-17 23:33N 53°56' E 007°40'10 9.8
2015-Mar-17 22:33N 53°54' E 007°24'1010.2
2015-Mar-17 21:33N 53°51' E 007°07'4310.9
2015-Mar-17 17:33N 53°39' E 005°57'1111.3
2015-Mar-17 16:34N 53°36' E 005°39'1211.6
2015-Mar-17 15:33N 53°32' E 005°20'1211.6
2015-Mar-17 14:33N 53°28' E 005°02'1111.4
2015-Mar-17 13:33N 53°24' E 004°44'1211.0
2015-Mar-17 12:31N 53°14' E 004°33'33 9.8
2015-Mar-17 09:08N 52°45' E 004°07'94 9.7
2015-Mar-16 23:31N 51°36' E 002°24'1111.2
2015-Mar-16 22:32N 51°28' E 002°13'1111.0
2015-Mar-16 21:32N 51°18' E 002°06'1111.0
2015-Mar-16 20:33N 51°10' E 001°53'1211.4
2015-Mar-16 19:30N 51°03' E 001°38'  
Track history (hours):
 
Tides and Currents Weather Stations Pressure Air Temp Water Temp Dewpoint Dewpoint Depression Visibility Wind Speed Wind Dir Waves Ship Positions

Lunamar

Last reported at 2015-Mar-22 17:20 UTC. Time now 2015-Mar-27 20:54 UTC.
Position N 57°37' E 017°03'.

Length 90 m; draft 4.5 m.

Type: Cargo ship. MMSI: 212762000.

Date/timePositionNaut miles runAvg speedWind from/ knotsBaromVisibWave heightAir tempDewpointWater temp
2015-Mar-22 17:20N 57°37' E 017°03'6 7.2
2015-Mar-22 16:33N 57°32' E 016°59'7 7.0
2015-Mar-22 15:33N 57°25' E 016°53'7 7.2
2015-Mar-22 14:33N 57°19' E 016°48'7 7.3
2015-Mar-22 13:33N 57°16' E 016°35'4 3.5
2015-Mar-22 12:29N 57°16' E 016°28'0 0.0
2015-Mar-22 11:32N 57°16' E 016°28'0 0.0
2015-Mar-22 10:32N 57°16' E 016°28'0 0.0
2015-Mar-22 09:33N 57°16' E 016°28'0 0.0
2015-Mar-22 08:33N 57°16' E 016°28'0 0.0
2015-Mar-22 07:33N 57°16' E 016°28'0 0.0
2015-Mar-22 06:33N 57°16' E 016°28'0 0.0
2015-Mar-22 05:33N 57°16' E 016°28'0 0.0
2015-Mar-22 04:33N 57°16' E 016°28'0 0.0
2015-Mar-22 03:33N 57°16' E 016°28'0 0.0
2015-Mar-22 02:33N 57°16' E 016°28'0 0.0
2015-Mar-22 01:33N 57°16' E 016°28'0 0.0
2015-Mar-22 00:33N 57°16' E 016°28'0 0.0
2015-Mar-21 23:33N 57°16' E 016°28'0 0.0
2015-Mar-21 22:33N 57°16' E 016°28'0 0.0
2015-Mar-21 21:33N 57°16' E 016°28'0 0.0
2015-Mar-21 20:33N 57°16' E 016°28'0 0.0
2015-Mar-21 19:33N 57°16' E 016°28'0 0.0
2015-Mar-21 18:33N 57°16' E 016°28'0 0.0
2015-Mar-21 17:33N 57°16' E 016°28'0 0.0
2015-Mar-21 16:33N 57°16' E 016°28'0 0.0
2015-Mar-21 15:33N 57°16' E 016°28'0 0.0
2015-Mar-21 14:33N 57°16' E 016°28'0 0.0
2015-Mar-21 13:33N 57°16' E 016°28'0 0.0
2015-Mar-21 12:33N 57°16' E 016°28'3 3.1
2015-Mar-21 11:33N 57°17' E 016°33'7 7.4
2015-Mar-21 10:33N 57°17' E 016°47'8 7.9
2015-Mar-21 09:33N 57°23' E 016°57'9 8.7
2015-Mar-21 08:31N 57°26' E 017°13'8 6.2
2015-Mar-21 07:16N 57°18' E 017°16'119 2.8
2015-Mar-19 13:13N 55°59' E 014°34'710.1
2015-Mar-19 12:33N 55°52' E 014°38'1111.0
2015-Mar-19 11:33N 55°41' E 014°38'1110.8
2015-Mar-19 10:33N 55°31' E 014°38'1010.2
2015-Mar-19 09:33N 55°21' E 014°33'1110.7
2015-Mar-19 08:33N 55°13' E 014°21'1110.8
2015-Mar-19 07:33N 55°04' E 014°10'1010.3
2015-Mar-19 06:33N 54°59' E 013°54'1110.6
2015-Mar-19 05:33N 54°55' E 013°37'1110.6
2015-Mar-19 04:33N 54°52' E 013°19'1110.6
2015-Mar-19 03:33N 54°49' E 013°02'1010.4
2015-Mar-19 02:33N 54°45' E 012°45'1010.4
2015-Mar-19 01:33N 54°39' E 012°30'10 9.9
2015-Mar-19 00:33N 54°33' E 012°17'10 9.5
2015-Mar-18 23:33N 54°25' E 012°09'1010.2
2015-Mar-18 22:33N 54°25' E 011°51'1010.1
2015-Mar-18 21:33N 54°28' E 011°34'9 9.5
2015-Mar-18 20:33N 54°32' E 011°20'8 8.4
2015-Mar-18 19:33N 54°35' E 011°06'9 9.3
2015-Mar-18 18:33N 54°35' E 010°51'1110.1
2015-Mar-18 17:28N 54°33' E 010°32'910.0
2015-Mar-18 16:33N 54°29' E 010°18'9 8.8
2015-Mar-18 15:33N 54°21' E 010°10'15 3.8
2015-Mar-18 11:33N 54°20' E 009°44'8 7.2
2015-Mar-18 10:31N 54°14' E 009°36'16 7.9
2015-Mar-18 08:33N 54°02' E 009°18'8 8.5
2015-Mar-18 07:33N 53°55' E 009°11'3 3.1
2015-Mar-18 06:33N 53°53' E 009°07'5 5.4
2015-Mar-18 05:33N 53°51' E 008°59'8 7.6
2015-Mar-18 04:33N 53°51' E 008°46'7 7.2
2015-Mar-18 03:33N 53°56' E 008°39'8 7.6
2015-Mar-18 02:33N 53°59' E 008°26'9 8.6
2015-Mar-18 01:33N 53°60' E 008°12'9 9.4
2015-Mar-18 00:33N 53°58' E 007°56'10 9.4
2015-Mar-17 23:33N 53°56' E 007°40'10 9.8
2015-Mar-17 22:33N 53°54' E 007°24'1010.2
2015-Mar-17 21:33N 53°51' E 007°07'4310.9
2015-Mar-17 17:33N 53°39' E 005°57'1111.3
2015-Mar-17 16:34N 53°36' E 005°39'1211.6
2015-Mar-17 15:33N 53°32' E 005°20'1211.6
2015-Mar-17 14:33N 53°28' E 005°02'1111.4
2015-Mar-17 13:33N 53°24' E 004°44'1211.0
2015-Mar-17 12:31N 53°14' E 004°33'33 9.8
2015-Mar-17 09:08N 52°45' E 004°07'94 9.7
2015-Mar-16 23:31N 51°36' E 002°24'1111.2
2015-Mar-16 22:32N 51°28' E 002°13'1111.0
2015-Mar-16 21:32N 51°18' E 002°06'1111.0
2015-Mar-16 20:33N 51°10' E 001°53'1211.4
2015-Mar-16 19:30N 51°03' E 001°38'  

Dump ship's entire track history